Detall de PIREP

Printer-friendly versionPDF version

[2011/05/13 16:46:00]
Flight IATA:CT1005
Pilot Number:042
Company ICAO:CAT
Aircraft Type:B763/F
PAX:200
Departing Airport: LMML
Destination Airport: ESSA
Alternate Airport:ESGG
Online: VATSIM
Route:GZO UP126 PNZ UM726 KENIG UZ400 ARGAD UZ330 OKAGA Z330 TRS M996 ELTOK
Flight Level:F350
No Slew and time accel
No pause
Crash detect
Detect pilot in Cockpit between each 30 and 45 minutes
16:46 Zero fuel Weight: 244978 Lbs, Fuel Weight: 161711 Lbs
16:46 VATSIM:LMML 131615Z 13003KT CAVOK 23/13 Q1020 NOSIG
16:46 VATSIM:ESSA 131620Z 06005KT 030V090 9999 FEW025 BKN065 13/09 Q1010 NOSIG
16:46 VOICE CATALONIAN/EU TOUR
16:57 Parking Brakes off
17:03 Take-off
17:03 Take off Weight: 404389 Lbs
17:03 Wind: 129 @ 003 Knots Heading: 134
17:03 POS N35 50 39 E014 29 44
17:03 Gear Up: 185 Knots
17:03 Flaps:3 at 185 Knots
17:03 Flaps:2 at 193 Knots
17:04 Flaps:1 at 205 Knots
17:04 Flaps:0 at 225 Knots
17:18 Wind:311@044 Knots Heading: 345 Ground Speed: 415 Knots Altitude 33713 ft
17:19 TOC
17:19 Fuel Weight: 151246 Lb
17:33 Wind:300@037 Knots Heading: 345 Ground Speed: 453 Knots Altitude 35170 ft
17:48 Wind:284@029 Knots Heading: 343 Ground Speed: 464 Knots Altitude 35167 ft
18:03 Wind:287@027 Knots Heading: 337 Ground Speed: 455 Knots Altitude 35160 ft
18:18 Wind:292@023 Knots Heading: 349 Ground Speed: 455 Knots Altitude 35114 ft
18:33 Wind:262@024 Knots Heading: 350 Ground Speed: 470 Knots Altitude 35200 ft
18:48 Wind:274@042 Knots Heading: 349 Ground Speed: 456 Knots Altitude 36174 ft
19:03 Wind:276@043 Knots Heading: 355 Ground Speed: 455 Knots Altitude 36174 ft
19:18 Wind:274@049 Knots Heading: 021 Ground Speed: 478 Knots Altitude 36200 ft
19:33 Wind:277@042 Knots Heading: 019 Ground Speed: 469 Knots Altitude 36171 ft
19:48 Wind:276@024 Knots Heading: 028 Ground Speed: 472 Knots Altitude 36095 ft
20:03 Wind:255@021 Knots Heading: 029 Ground Speed: 483 Knots Altitude 35990 ft
20:18 Wind:214@017 Knots Heading: 340 Ground Speed: 477 Knots Altitude 35935 ft
20:20 TOD
20:20 Fuel Weight: 113734 Lb
20:33 Wind:240@012 Knots Heading: 192 Ground Speed: 337 Knots Altitude 17952 ft
20:48 Wind:245@010 Knots Heading: 356 Ground Speed: 301 Knots Altitude 12001 ft
20:51 Flaps:1 at 231 Knots
21:00 Flaps:2 at 178 Knots
21:02 Gear Down: 160 Knots
21:02 Flaps:3 at 160 Knots
21:02 Flaps:4 at 159 Knots
21:03 Wind:127@004 Knots Heading: 190 Ground Speed: 157 Knots Altitude 2070 ft
21:04 Flaps:5 at 154 Knots
21:04 Flaps:6 at 154 Knots
21:05 TouchDown:Rate -202 ft/min Speed: 139 Knots
21:05 VATSIM:ESSA 132020Z 12004KT 9999 FEW019 BKN065 09/07 Q1011 R88/29//95 NOSIG
21:05 Land
21:05 Wind:137@004 Knots
21:05 Heading: 192
21:05 Flight Duration: 04:02
21:05 Landing Weight: 352643 Lbs
21:05 POS N59 39 08 E017 55 08
21:11 Parking brakes on
21:11 Block to Block Duration: 04:14
21:11 Final Fuel: 106558 Lbls
21:11 Spent Fuel: 55152 Lbls
21:11 Flight Length: 1644 NM
21:11 TOD Land Length: 144 NM

Exportar CSV

Powered by Drupal - Modified by Danger4k